sensor_id;sensor_type;location;lat;lon;timestamp;P1;durP1;ratioP1;P2;durP2;ratioP2
13419;SDS011;6781;58.440;15.470;2022-10-16T00:00:47;9.70;;;7.70;;
13419;SDS011;6781;58.440;15.470;2022-10-16T00:03:14;10.77;;;8.35;;
13419;SDS011;6781;58.440;15.470;2022-10-16T00:05:42;10.48;;;7.30;;
13419;SDS011;6781;58.440;15.470;2022-10-16T00:08:12;8.40;;;7.60;;
13419;SDS011;6781;58.440;15.470;2022-10-16T00:10:39;8.98;;;8.10;;
13419;SDS011;6781;58.440;15.470;2022-10-16T00:13:06;8.60;;;7.75;;
13419;SDS011;6781;58.440;15.470;2022-10-16T00:15:34;9.70;;;8.07;;
13419;SDS011;6781;58.440;15.470;2022-10-16T00:18:04;11.38;;;8.35;;
13419;SDS011;6781;58.440;15.470;2022-10-16T00:20:33;9.35;;;8.20;;
13419;SDS011;6781;58.440;15.470;2022-10-16T00:23:02;9.23;;;7.63;;
13419;SDS011;6781;58.440;15.470;2022-10-16T00:25:31;8.25;;;7.15;;
13419;SDS011;6781;58.440;15.470;2022-10-16T00:27:59;9.80;;;7.72;;
13419;SDS011;6781;58.440;15.470;2022-10-16T00:30:26;10.23;;;7.22;;
13419;SDS011;6781;58.440;15.470;2022-10-16T00:32:54;9.82;;;8.25;;
13419;SDS011;6781;58.440;15.470;2022-10-16T00:35:21;8.50;;;7.70;;
13419;SDS011;6781;58.440;15.470;2022-10-16T00:37:48;9.95;;;7.28;;
13419;SDS011;6781;58.440;15.470;2022-10-16T00:40:15;10.90;;;6.78;;
13419;SDS011;6781;58.440;15.470;2022-10-16T00:42:44;7.00;;;6.40;;
13419;SDS011;6781;58.440;15.470;2022-10-16T00:45:11;10.70;;;6.32;;
13419;SDS011;6781;58.440;15.470;2022-10-16T00:47:39;7.10;;;6.22;;
13419;SDS011;6781;58.440;15.470;2022-10-16T00:50:10;8.18;;;6.32;;
13419;SDS011;6781;58.440;15.470;2022-10-16T00:52:46;8.65;;;6.53;;
13419;SDS011;6781;58.440;15.470;2022-10-16T00:55:16;8.95;;;7.20;;
13419;SDS011;6781;58.440;15.470;2022-10-16T00:57:47;7.97;;;5.72;;
13419;SDS011;6781;58.440;15.470;2022-10-16T01:00:16;7.53;;;6.28;;
13419;SDS011;6781;58.440;15.470;2022-10-16T01:02:51;10.25;;;6.07;;
13419;SDS011;6781;58.440;15.470;2022-10-16T01:05:18;8.32;;;6.60;;
13419;SDS011;6781;58.440;15.470;2022-10-16T01:07:48;11.32;;;7.43;;
13419;SDS011;6781;58.440;15.470;2022-10-16T01:10:27;8.73;;;6.78;;
13419;SDS011;6781;58.440;15.470;2022-10-16T01:13:03;9.00;;;7.07;;
13419;SDS011;6781;58.440;15.470;2022-10-16T01:15:33;11.32;;;8.27;;
13419;SDS011;6781;58.440;15.470;2022-10-16T01:18:05;9.80;;;6.68;;
13419;SDS011;6781;58.440;15.470;2022-10-16T01:20:38;8.45;;;6.57;;
13419;SDS011;6781;58.440;15.470;2022-10-16T01:23:15;9.30;;;6.85;;
13419;SDS011;6781;58.440;15.470;2022-10-16T01:28:51;9.07;;;6.63;;
13419;SDS011;6781;58.440;15.470;2022-10-16T01:31:22;7.88;;;6.75;;
13419;SDS011;6781;58.440;15.470;2022-10-16T01:33:54;12.45;;;6.43;;
13419;SDS011;6781;58.440;15.470;2022-10-16T01:36:26;12.75;;;7.07;;
13419;SDS011;6781;58.440;15.470;2022-10-16T01:38:59;8.73;;;5.90;;
13419;SDS011;6781;58.440;15.470;2022-10-16T01:41:30;9.10;;;6.88;;
13419;SDS011;6781;58.440;15.470;2022-10-16T01:44:01;9.63;;;6.47;;
13419;SDS011;6781;58.440;15.470;2022-10-16T01:46:31;8.25;;;7.13;;
13419;SDS011;6781;58.440;15.470;2022-10-16T01:49:00;9.65;;;7.60;;
13419;SDS011;6781;58.440;15.470;2022-10-16T01:51:29;7.80;;;6.80;;
13419;SDS011;6781;58.440;15.470;2022-10-16T01:53:57;7.85;;;6.53;;
13419;SDS011;6781;58.440;15.470;2022-10-16T01:56:27;7.72;;;6.38;;
13419;SDS011;6781;58.440;15.470;2022-10-16T01:58:57;11.38;;;7.25;;
13419;SDS011;6781;58.440;15.470;2022-10-16T02:01:29;10.05;;;7.65;;
13419;SDS011;6781;58.440;15.470;2022-10-16T02:04:01;17.67;;;7.95;;
13419;SDS011;6781;58.440;15.470;2022-10-16T02:06:31;10.13;;;7.93;;
13419;SDS011;6781;58.440;15.470;2022-10-16T02:08:59;9.98;;;7.93;;
13419;SDS011;6781;58.440;15.470;2022-10-16T02:11:26;11.10;;;8.55;;
13419;SDS011;6781;58.440;15.470;2022-10-16T02:13:55;9.93;;;7.93;;
13419;SDS011;6781;58.440;15.470;2022-10-16T02:16:35;8.10;;;6.45;;
13419;SDS011;6781;58.440;15.470;2022-10-16T02:19:06;10.07;;;7.30;;
13419;SDS011;6781;58.440;15.470;2022-10-16T02:21:36;8.35;;;7.32;;
13419;SDS011;6781;58.440;15.470;2022-10-16T02:24:11;7.25;;;6.55;;
13419;SDS011;6781;58.440;15.470;2022-10-16T02:26:45;9.35;;;7.57;;
13419;SDS011;6781;58.440;15.470;2022-10-16T02:29:19;7.95;;;7.10;;
13419;SDS011;6781;58.440;15.470;2022-10-16T02:31:52;6.90;;;6.20;;
13419;SDS011;6781;58.440;15.470;2022-10-16T02:34:26;7.75;;;6.82;;
13419;SDS011;6781;58.440;15.470;2022-10-16T02:36:56;7.93;;;6.75;;
13419;SDS011;6781;58.440;15.470;2022-10-16T02:39:25;9.27;;;6.90;;
13419;SDS011;6781;58.440;15.470;2022-10-16T02:41:54;7.50;;;6.47;;
13419;SDS011;6781;58.440;15.470;2022-10-16T02:44:21;10.70;;;7.25;;
13419;SDS011;6781;58.440;15.470;2022-10-16T02:46:48;8.35;;;6.93;;
13419;SDS011;6781;58.440;15.470;2022-10-16T02:49:17;7.88;;;6.63;;
13419;SDS011;6781;58.440;15.470;2022-10-16T02:51:44;11.57;;;8.32;;
13419;SDS011;6781;58.440;15.470;2022-10-16T02:54:11;9.90;;;7.68;;
13419;SDS011;6781;58.440;15.470;2022-10-16T02:56:41;15.23;;;7.75;;
13419;SDS011;6781;58.440;15.470;2022-10-16T02:59:11;9.55;;;7.32;;
13419;SDS011;6781;58.440;15.470;2022-10-16T03:01:38;7.70;;;7.00;;
13419;SDS011;6781;58.440;15.470;2022-10-16T03:04:05;11.70;;;7.10;;
13419;SDS011;6781;58.440;15.470;2022-10-16T03:09:09;9.02;;;6.70;;
13419;SDS011;6781;58.440;15.470;2022-10-16T03:11:36;8.43;;;6.68;;
13419;SDS011;6781;58.440;15.470;2022-10-16T03:14:05;8.27;;;6.65;;
13419;SDS011;6781;58.440;15.470;2022-10-16T03:16:33;7.75;;;6.70;;
13419;SDS011;6781;58.440;15.470;2022-10-16T03:19:00;8.52;;;6.68;;
13419;SDS011;6781;58.440;15.470;2022-10-16T03:21:27;7.63;;;6.82;;
13419;SDS011;6781;58.440;15.470;2022-10-16T03:23:54;7.47;;;6.78;;
13419;SDS011;6781;58.440;15.470;2022-10-16T03:26:23;6.63;;;6.03;;
13419;SDS011;6781;58.440;15.470;2022-10-16T03:28:50;8.52;;;6.53;;
13419;SDS011;6781;58.440;15.470;2022-10-16T03:31:17;8.02;;;7.18;;
13419;SDS011;6781;58.440;15.470;2022-10-16T03:33:44;7.78;;;6.75;;
13419;SDS011;6781;58.440;15.470;2022-10-16T03:36:11;8.30;;;6.50;;
13419;SDS011;6781;58.440;15.470;2022-10-16T03:38:38;9.18;;;7.25;;
13419;SDS011;6781;58.440;15.470;2022-10-16T03:41:05;7.18;;;6.30;;
13419;SDS011;6781;58.440;15.470;2022-10-16T03:43:34;10.82;;;7.13;;
13419;SDS011;6781;58.440;15.470;2022-10-16T03:46:02;8.38;;;6.78;;
13419;SDS011;6781;58.440;15.470;2022-10-16T03:48:29;8.13;;;6.32;;
13419;SDS011;6781;58.440;15.470;2022-10-16T03:50:57;7.00;;;6.32;;
13419;SDS011;6781;58.440;15.470;2022-10-16T03:53:24;7.15;;;5.80;;
13419;SDS011;6781;58.440;15.470;2022-10-16T03:55:51;9.15;;;6.97;;
13419;SDS011;6781;58.440;15.470;2022-10-16T03:58:18;7.90;;;6.30;;
13419;SDS011;6781;58.440;15.470;2022-10-16T04:00:48;7.43;;;5.85;;
13419;SDS011;6781;58.440;15.470;2022-10-16T04:03:15;9.23;;;6.63;;
13419;SDS011;6781;58.440;15.470;2022-10-16T04:05:44;8.48;;;6.57;;
13419;SDS011;6781;58.440;15.470;2022-10-16T04:08:11;6.88;;;6.15;;
13419;SDS011;6781;58.440;15.470;2022-10-16T04:10:38;7.32;;;6.63;;
13419;SDS011;6781;58.440;15.470;2022-10-16T04:13:05;8.20;;;6.65;;
13419;SDS011;6781;58.440;15.470;2022-10-16T04:15:32;7.63;;;6.32;;
13419;SDS011;6781;58.440;15.470;2022-10-16T04:18:00;9.45;;;7.28;;
13419;SDS011;6781;58.440;15.470;2022-10-16T04:20:27;8.20;;;7.22;;
13419;SDS011;6781;58.440;15.470;2022-10-16T04:22:56;11.73;;;7.65;;
13419;SDS011;6781;58.440;15.470;2022-10-16T04:25:23;9.88;;;7.70;;
13419;SDS011;6781;58.440;15.470;2022-10-16T04:27:52;13.57;;;7.75;;
13419;SDS011;6781;58.440;15.470;2022-10-16T04:30:19;9.95;;;7.68;;
13419;SDS011;6781;58.440;15.470;2022-10-16T04:32:47;7.70;;;6.90;;
13419;SDS011;6781;58.440;15.470;2022-10-16T04:35:16;9.38;;;6.90;;
13419;SDS011;6781;58.440;15.470;2022-10-16T04:37:43;8.60;;;6.85;;
13419;SDS011;6781;58.440;15.470;2022-10-16T04:40:11;10.15;;;7.10;;
13419;SDS011;6781;58.440;15.470;2022-10-16T04:42:38;8.73;;;7.03;;
13419;SDS011;6781;58.440;15.470;2022-10-16T04:45:06;8.45;;;6.82;;
13419;SDS011;6781;58.440;15.470;2022-10-16T04:47:33;9.05;;;7.70;;
13419;SDS011;6781;58.440;15.470;2022-10-16T04:50:00;8.00;;;7.18;;
13419;SDS011;6781;58.440;15.470;2022-10-16T04:52:29;13.50;;;7.00;;
13419;SDS011;6781;58.440;15.470;2022-10-16T04:54:56;10.18;;;7.45;;
13419;SDS011;6781;58.440;15.470;2022-10-16T04:57:26;13.75;;;7.50;;
13419;SDS011;6781;58.440;15.470;2022-10-16T04:59:53;9.00;;;7.60;;
13419;SDS011;6781;58.440;15.470;2022-10-16T05:02:21;10.73;;;7.35;;
13419;SDS011;6781;58.440;15.470;2022-10-16T05:04:48;11.05;;;8.00;;
13419;SDS011;6781;58.440;15.470;2022-10-16T05:07:15;8.95;;;7.43;;
13419;SDS011;6781;58.440;15.470;2022-10-16T05:09:43;12.48;;;8.07;;
13419;SDS011;6781;58.440;15.470;2022-10-16T05:12:10;9.18;;;8.23;;
13419;SDS011;6781;58.440;15.470;2022-10-16T05:14:37;10.90;;;7.60;;
13419;SDS011;6781;58.440;15.470;2022-10-16T05:17:04;8.45;;;7.50;;
13419;SDS011;6781;58.440;15.470;2022-10-16T05:19:31;9.95;;;7.75;;
13419;SDS011;6781;58.440;15.470;2022-10-16T05:21:58;12.20;;;7.80;;
13419;SDS011;6781;58.440;15.470;2022-10-16T05:24:25;8.10;;;7.30;;
13419;SDS011;6781;58.440;15.470;2022-10-16T05:26:54;10.02;;;7.07;;
13419;SDS011;6781;58.440;15.470;2022-10-16T05:29:21;9.50;;;8.00;;
13419;SDS011;6781;58.440;15.470;2022-10-16T05:31:49;9.93;;;7.90;;
13419;SDS011;6781;58.440;15.470;2022-10-16T05:34:17;8.95;;;7.70;;
13419;SDS011;6781;58.440;15.470;2022-10-16T05:36:45;11.45;;;7.63;;
13419;SDS011;6781;58.440;15.470;2022-10-16T05:39:13;10.00;;;8.40;;
13419;SDS011;6781;58.440;15.470;2022-10-16T05:41:41;11.43;;;8.80;;
13419;SDS011;6781;58.440;15.470;2022-10-16T05:44:10;13.45;;;9.48;;
13419;SDS011;6781;58.440;15.470;2022-10-16T05:46:37;12.88;;;8.60;;
13419;SDS011;6781;58.440;15.470;2022-10-16T05:49:04;9.53;;;8.10;;
13419;SDS011;6781;58.440;15.470;2022-10-16T05:51:31;10.32;;;8.43;;
13419;SDS011;6781;58.440;15.470;2022-10-16T05:53:58;12.57;;;8.25;;
13419;SDS011;6781;58.440;15.470;2022-10-16T05:56:25;9.23;;;8.18;;
13419;SDS011;6781;58.440;15.470;2022-10-16T05:58:52;9.95;;;8.68;;
13419;SDS011;6781;58.440;15.470;2022-10-16T06:01:20;11.93;;;9.25;;
13419;SDS011;6781;58.440;15.470;2022-10-16T06:03:49;11.93;;;9.10;;
13419;SDS011;6781;58.440;15.470;2022-10-16T06:06:19;10.93;;;8.25;;
13419;SDS011;6781;58.440;15.470;2022-10-16T06:08:50;10.77;;;9.15;;
13419;SDS011;6781;58.440;15.470;2022-10-16T06:11:17;11.23;;;8.75;;
13419;SDS011;6781;58.440;15.470;2022-10-16T06:13:48;11.65;;;8.98;;
13419;SDS011;6781;58.440;15.470;2022-10-16T06:16:16;12.77;;;8.43;;
13419;SDS011;6781;58.440;15.470;2022-10-16T06:18:45;12.30;;;8.88;;
13419;SDS011;6781;58.440;15.470;2022-10-16T06:21:14;12.88;;;9.70;;
13419;SDS011;6781;58.440;15.470;2022-10-16T06:23:42;13.02;;;9.00;;
13419;SDS011;6781;58.440;15.470;2022-10-16T06:26:11;12.80;;;8.10;;
13419;SDS011;6781;58.440;15.470;2022-10-16T06:28:40;11.23;;;8.38;;
13419;SDS011;6781;58.440;15.470;2022-10-16T06:31:15;9.93;;;8.23;;
13419;SDS011;6781;58.440;15.470;2022-10-16T06:33:44;10.82;;;8.10;;
13419;SDS011;6781;58.440;15.470;2022-10-16T06:36:12;11.50;;;8.05;;
13419;SDS011;6781;58.440;15.470;2022-10-16T06:38:41;9.25;;;7.72;;
13419;SDS011;6781;58.440;15.470;2022-10-16T06:41:09;8.80;;;7.22;;
13419;SDS011;6781;58.440;15.470;2022-10-16T06:43:38;8.80;;;7.72;;
13419;SDS011;6781;58.440;15.470;2022-10-16T06:46:05;12.65;;;8.10;;
13419;SDS011;6781;58.440;15.470;2022-10-16T06:48:34;11.27;;;7.57;;
13419;SDS011;6781;58.440;15.470;2022-10-16T06:51:03;10.02;;;7.82;;
13419;SDS011;6781;58.440;15.470;2022-10-16T06:53:31;10.60;;;7.47;;
13419;SDS011;6781;58.440;15.470;2022-10-16T06:56:06;8.55;;;7.70;;
13419;SDS011;6781;58.440;15.470;2022-10-16T06:58:35;9.90;;;7.80;;
13419;SDS011;6781;58.440;15.470;2022-10-16T07:01:05;8.65;;;7.03;;
13419;SDS011;6781;58.440;15.470;2022-10-16T07:03:32;8.40;;;7.25;;
13419;SDS011;6781;58.440;15.470;2022-10-16T07:06:04;9.48;;;7.45;;
13419;SDS011;6781;58.440;15.470;2022-10-16T07:08:36;7.72;;;6.90;;
13419;SDS011;6781;58.440;15.470;2022-10-16T07:11:51;11.35;;;6.60;;
13419;SDS011;6781;58.440;15.470;2022-10-16T07:14:20;12.30;;;7.40;;
13419;SDS011;6781;58.440;15.470;2022-10-16T07:16:47;10.10;;;7.03;;
13419;SDS011;6781;58.440;15.470;2022-10-16T07:19:23;10.30;;;7.68;;
13419;SDS011;6781;58.440;15.470;2022-10-16T07:21:52;10.32;;;7.72;;
13419;SDS011;6781;58.440;15.470;2022-10-16T07:24:19;11.00;;;8.38;;
13419;SDS011;6781;58.440;15.470;2022-10-16T07:26:46;13.15;;;8.50;;
13419;SDS011;6781;58.440;15.470;2022-10-16T07:29:17;13.13;;;9.07;;
13419;SDS011;6781;58.440;15.470;2022-10-16T07:34:39;10.25;;;8.98;;
13419;SDS011;6781;58.440;15.470;2022-10-16T07:37:10;15.25;;;9.07;;
13419;SDS011;6781;58.440;15.470;2022-10-16T07:39:37;13.10;;;8.40;;
13419;SDS011;6781;58.440;15.470;2022-10-16T07:42:07;9.90;;;8.48;;
13419;SDS011;6781;58.440;15.470;2022-10-16T07:44:52;11.63;;;8.23;;
13419;SDS011;6781;58.440;15.470;2022-10-16T07:47:55;13.30;;;7.63;;
13419;SDS011;6781;58.440;15.470;2022-10-16T07:50:43;14.48;;;9.80;;
13419;SDS011;6781;58.440;15.470;2022-10-16T07:59:47;11.60;;;6.63;;
13419;SDS011;6781;58.440;15.470;2022-10-16T08:02:21;11.55;;;7.05;;
13419;SDS011;6781;58.440;15.470;2022-10-16T08:32:17;4.70;;;4.20;;
13419;SDS011;6781;58.440;15.470;2022-10-16T08:34:49;4.47;;;4.07;;
13419;SDS011;6781;58.440;15.470;2022-10-16T08:37:44;6.95;;;4.30;;
13419;SDS011;6781;58.440;15.470;2022-10-16T08:40:43;6.38;;;4.88;;
13419;SDS011;6781;58.440;15.470;2022-10-16T08:46:21;8.27;;;4.55;;
13419;SDS011;6781;58.440;15.470;2022-10-16T08:48:59;8.80;;;4.47;;
13419;SDS011;6781;58.440;15.470;2022-10-16T08:51:29;6.05;;;3.80;;
13419;SDS011;6781;58.440;15.470;2022-10-16T08:54:01;4.55;;;3.78;;
13419;SDS011;6781;58.440;15.470;2022-10-16T08:56:30;6.03;;;4.10;;
13419;SDS011;6781;58.440;15.470;2022-10-16T08:58:58;5.70;;;4.13;;
13419;SDS011;6781;58.440;15.470;2022-10-16T09:01:29;5.97;;;3.78;;
13419;SDS011;6781;58.440;15.470;2022-10-16T09:04:12;4.30;;;3.78;;
13419;SDS011;6781;58.440;15.470;2022-10-16T09:06:52;7.35;;;4.15;;
13419;SDS011;6781;58.440;15.470;2022-10-16T09:09:28;6.22;;;3.67;;
13419;SDS011;6781;58.440;15.470;2022-10-16T09:12:11;5.25;;;3.80;;
13419;SDS011;6781;58.440;15.470;2022-10-16T09:14:46;4.75;;;3.50;;
13419;SDS011;6781;58.440;15.470;2022-10-16T09:17:24;5.15;;;3.47;;
13419;SDS011;6781;58.440;15.470;2022-10-16T09:20:09;5.95;;;2.97;;
13419;SDS011;6781;58.440;15.470;2022-10-16T09:22:43;5.60;;;3.30;;
13419;SDS011;6781;58.440;15.470;2022-10-16T09:25:12;9.10;;;3.83;;
13419;SDS011;6781;58.440;15.470;2022-10-16T09:27:41;3.55;;;3.00;;
13419;SDS011;6781;58.440;15.470;2022-10-16T09:30:12;6.07;;;3.10;;
13419;SDS011;6781;58.440;15.470;2022-10-16T09:32:40;4.03;;;3.00;;
13419;SDS011;6781;58.440;15.470;2022-10-16T09:35:13;4.28;;;3.20;;
13419;SDS011;6781;58.440;15.470;2022-10-16T09:37:42;5.45;;;3.20;;
13419;SDS011;6781;58.440;15.470;2022-10-16T09:40:12;5.53;;;3.13;;
13419;SDS011;6781;58.440;15.470;2022-10-16T09:42:50;4.72;;;3.03;;
13419;SDS011;6781;58.440;15.470;2022-10-16T09:45:23;5.38;;;2.90;;
13419;SDS011;6781;58.440;15.470;2022-10-16T09:47:50;4.25;;;2.75;;
13419;SDS011;6781;58.440;15.470;2022-10-16T09:50:23;4.38;;;2.50;;
13419;SDS011;6781;58.440;15.470;2022-10-16T09:53:03;7.15;;;2.65;;
13419;SDS011;6781;58.440;15.470;2022-10-16T09:55:31;7.72;;;2.90;;
13419;SDS011;6781;58.440;15.470;2022-10-16T09:57:58;7.55;;;3.03;;
13419;SDS011;6781;58.440;15.470;2022-10-16T10:00:27;4.88;;;2.70;;
13419;SDS011;6781;58.440;15.470;2022-10-16T10:02:55;4.80;;;3.13;;
13419;SDS011;6781;58.440;15.470;2022-10-16T10:05:24;4.05;;;2.40;;
13419;SDS011;6781;58.440;15.470;2022-10-16T10:07:56;6.60;;;2.60;;
13419;SDS011;6781;58.440;15.470;2022-10-16T10:10:25;6.22;;;2.70;;
13419;SDS011;6781;58.440;15.470;2022-10-16T10:12:54;5.30;;;2.60;;
13419;SDS011;6781;58.440;15.470;2022-10-16T10:15:23;7.05;;;2.80;;
13419;SDS011;6781;58.440;15.470;2022-10-16T10:17:52;7.40;;;2.42;;
13419;SDS011;6781;58.440;15.470;2022-10-16T10:20:22;5.07;;;2.53;;
13419;SDS011;6781;58.440;15.470;2022-10-16T10:22:53;4.97;;;2.75;;
13419;SDS011;6781;58.440;15.470;2022-10-16T10:25:33;6.07;;;2.35;;
13419;SDS011;6781;58.440;15.470;2022-10-16T10:28:15;6.82;;;2.75;;
13419;SDS011;6781;58.440;15.470;2022-10-16T10:30:51;5.72;;;2.50;;
13419;SDS011;6781;58.440;15.470;2022-10-16T10:33:35;6.35;;;2.60;;
13419;SDS011;6781;58.440;15.470;2022-10-16T10:36:22;8.20;;;2.30;;
13419;SDS011;6781;58.440;15.470;2022-10-16T10:38:59;4.97;;;2.42;;
13419;SDS011;6781;58.440;15.470;2022-10-16T10:41:47;4.30;;;2.30;;
13419;SDS011;6781;58.440;15.470;2022-10-16T10:44:28;2.92;;;2.13;;
13419;SDS011;6781;58.440;15.470;2022-10-16T10:47:13;4.63;;;2.50;;
13419;SDS011;6781;58.440;15.470;2022-10-16T10:49:55;3.13;;;2.35;;
13419;SDS011;6781;58.440;15.470;2022-10-16T10:52:52;3.75;;;2.20;;
13419;SDS011;6781;58.440;15.470;2022-10-16T10:55:31;4.65;;;2.10;;
13419;SDS011;6781;58.440;15.470;2022-10-16T11:01:57;5.07;;;2.10;;
13419;SDS011;6781;58.440;15.470;2022-10-16T11:04:52;5.65;;;2.20;;
13419;SDS011;6781;58.440;15.470;2022-10-16T11:11:00;3.30;;;1.85;;
13419;SDS011;6781;58.440;15.470;2022-10-16T11:13:31;3.55;;;1.90;;
13419;SDS011;6781;58.440;15.470;2022-10-16T11:16:10;4.40;;;2.10;;
13419;SDS011;6781;58.440;15.470;2022-10-16T11:18:52;7.22;;;2.00;;
13419;SDS011;6781;58.440;15.470;2022-10-16T11:21:29;5.28;;;2.20;;
13419;SDS011;6781;58.440;15.470;2022-10-16T11:24:04;3.97;;;2.00;;
13419;SDS011;6781;58.440;15.470;2022-10-16T11:26:39;2.95;;;1.58;;
13419;SDS011;6781;58.440;15.470;2022-10-16T11:29:13;5.88;;;1.70;;
13419;SDS011;6781;58.440;15.470;2022-10-16T11:31:56;3.67;;;1.73;;
13419;SDS011;6781;58.440;15.470;2022-10-16T11:34:34;5.15;;;1.60;;
13419;SDS011;6781;58.440;15.470;2022-10-16T11:37:08;5.85;;;2.13;;
13419;SDS011;6781;58.440;15.470;2022-10-16T11:39:40;3.78;;;1.83;;
13419;SDS011;6781;58.440;15.470;2022-10-16T11:42:11;3.88;;;1.70;;
13419;SDS011;6781;58.440;15.470;2022-10-16T11:44:45;4.07;;;1.85;;
13419;SDS011;6781;58.440;15.470;2022-10-16T11:47:24;7.63;;;1.77;;
13419;SDS011;6781;58.440;15.470;2022-10-16T11:50:02;2.63;;;1.60;;
13419;SDS011;6781;58.440;15.470;2022-10-16T11:52:36;4.20;;;1.30;;
13419;SDS011;6781;58.440;15.470;2022-10-16T11:55:13;5.28;;;2.05;;
13419;SDS011;6781;58.440;15.470;2022-10-16T11:57:44;4.72;;;1.88;;
13419;SDS011;6781;58.440;15.470;2022-10-16T12:00:19;5.40;;;1.60;;
13419;SDS011;6781;58.440;15.470;2022-10-16T12:02:52;6.18;;;2.00;;
13419;SDS011;6781;58.440;15.470;2022-10-16T12:05:28;7.18;;;1.95;;
13419;SDS011;6781;58.440;15.470;2022-10-16T12:08:08;4.22;;;1.50;;
13419;SDS011;6781;58.440;15.470;2022-10-16T12:10:37;5.80;;;1.60;;
13419;SDS011;6781;58.440;15.470;2022-10-16T12:16:05;3.20;;;1.40;;
13419;SDS011;6781;58.440;15.470;2022-10-16T12:18:34;7.47;;;1.70;;
13419;SDS011;6781;58.440;15.470;2022-10-16T12:21:01;4.93;;;1.38;;
13419;SDS011;6781;58.440;15.470;2022-10-16T12:23:32;6.40;;;1.38;;
13419;SDS011;6781;58.440;15.470;2022-10-16T12:25:59;3.92;;;1.60;;
13419;SDS011;6781;58.440;15.470;2022-10-16T12:28:30;5.97;;;1.77;;
13419;SDS011;6781;58.440;15.470;2022-10-16T12:31:03;7.25;;;1.50;;
13419;SDS011;6781;58.440;15.470;2022-10-16T12:33:32;3.75;;;1.50;;
13419;SDS011;6781;58.440;15.470;2022-10-16T12:36:01;5.10;;;1.50;;
13419;SDS011;6781;58.440;15.470;2022-10-16T12:38:31;5.78;;;1.90;;
13419;SDS011;6781;58.440;15.470;2022-10-16T12:41:05;6.53;;;1.67;;
13419;SDS011;6781;58.440;15.470;2022-10-16T12:43:39;8.73;;;1.90;;
13419;SDS011;6781;58.440;15.470;2022-10-16T12:46:22;3.30;;;1.58;;
13419;SDS011;6781;58.440;15.470;2022-10-16T12:48:51;3.92;;;1.50;;
13419;SDS011;6781;58.440;15.470;2022-10-16T12:51:22;2.63;;;1.48;;
13419;SDS011;6781;58.440;15.470;2022-10-16T12:53:59;6.65;;;1.98;;
13419;SDS011;6781;58.440;15.470;2022-10-16T12:56:27;8.38;;;1.58;;
13419;SDS011;6781;58.440;15.470;2022-10-16T12:59:06;4.88;;;1.40;;
13419;SDS011;6781;58.440;15.470;2022-10-16T13:01:42;5.53;;;1.40;;
13419;SDS011;6781;58.440;15.470;2022-10-16T13:07:30;6.18;;;2.08;;
13419;SDS011;6781;58.440;15.470;2022-10-16T13:10:10;4.32;;;1.50;;
13419;SDS011;6781;58.440;15.470;2022-10-16T13:12:52;9.65;;;1.90;;
13419;SDS011;6781;58.440;15.470;2022-10-16T13:15:33;5.25;;;1.63;;
13419;SDS011;6781;58.440;15.470;2022-10-16T13:18:19;3.28;;;1.20;;
13419;SDS011;6781;58.440;15.470;2022-10-16T13:20:55;4.75;;;1.10;;
13419;SDS011;6781;58.440;15.470;2022-10-16T13:23:30;2.83;;;0.98;;
13419;SDS011;6781;58.440;15.470;2022-10-16T13:26:06;3.22;;;1.23;;
13419;SDS011;6781;58.440;15.470;2022-10-16T13:28:42;3.67;;;1.27;;
13419;SDS011;6781;58.440;15.470;2022-10-16T13:31:12;4.57;;;1.10;;
13419;SDS011;6781;58.440;15.470;2022-10-16T13:33:45;4.93;;;1.25;;
13419;SDS011;6781;58.440;15.470;2022-10-16T13:36:18;3.05;;;1.45;;
13419;SDS011;6781;58.440;15.470;2022-10-16T13:38:47;5.38;;;1.40;;
13419;SDS011;6781;58.440;15.470;2022-10-16T13:41:15;5.22;;;1.40;;
13419;SDS011;6781;58.440;15.470;2022-10-16T13:43:44;3.05;;;1.50;;
13419;SDS011;6781;58.440;15.470;2022-10-16T13:46:15;6.53;;;1.48;;
13419;SDS011;6781;58.440;15.470;2022-10-16T13:48:43;3.38;;;1.13;;
13419;SDS011;6781;58.440;15.470;2022-10-16T13:51:12;7.40;;;1.75;;
13419;SDS011;6781;58.440;15.470;2022-10-16T13:53:41;2.58;;;1.40;;
13419;SDS011;6781;58.440;15.470;2022-10-16T13:56:10;3.95;;;1.33;;
13419;SDS011;6781;58.440;15.470;2022-10-16T13:58:39;4.60;;;1.60;;
13419;SDS011;6781;58.440;15.470;2022-10-16T14:01:13;9.85;;;4.05;;
13419;SDS011;6781;58.440;15.470;2022-10-16T14:03:46;5.97;;;4.00;;
13419;SDS011;6781;58.440;15.470;2022-10-16T14:06:14;7.57;;;3.05;;
13419;SDS011;6781;58.440;15.470;2022-10-16T14:08:44;4.63;;;2.45;;
13419;SDS011;6781;58.440;15.470;2022-10-16T14:11:20;3.30;;;1.33;;
13419;SDS011;6781;58.440;15.470;2022-10-16T14:13:49;5.15;;;1.33;;
13419;SDS011;6781;58.440;15.470;2022-10-16T14:16:24;2.65;;;1.55;;
13419;SDS011;6781;58.440;15.470;2022-10-16T14:18:55;9.50;;;1.35;;
13419;SDS011;6781;58.440;15.470;2022-10-16T14:21:24;3.05;;;1.15;;
13419;SDS011;6781;58.440;15.470;2022-10-16T14:23:52;3.55;;;1.15;;
13419;SDS011;6781;58.440;15.470;2022-10-16T14:26:20;2.58;;;0.70;;
13419;SDS011;6781;58.440;15.470;2022-10-16T14:29:01;2.15;;;0.77;;
13419;SDS011;6781;58.440;15.470;2022-10-16T14:31:37;3.28;;;0.98;;
13419;SDS011;6781;58.440;15.470;2022-10-16T14:36:53;1.13;;;0.70;;
13419;SDS011;6781;58.440;15.470;2022-10-16T14:39:21;0.95;;;0.47;;
13419;SDS011;6781;58.440;15.470;2022-10-16T14:41:49;3.58;;;0.60;;
13419;SDS011;6781;58.440;15.470;2022-10-16T14:44:18;2.03;;;0.52;;
13419;SDS011;6781;58.440;15.470;2022-10-16T14:46:48;3.50;;;0.70;;
13419;SDS011;6781;58.440;15.470;2022-10-16T14:49:16;1.33;;;0.65;;
13419;SDS011;6781;58.440;15.470;2022-10-16T14:51:45;1.40;;;0.52;;
13419;SDS011;6781;58.440;15.470;2022-10-16T14:54:13;1.02;;;0.68;;
13419;SDS011;6781;58.440;15.470;2022-10-16T14:56:43;2.22;;;0.70;;
13419;SDS011;6781;58.440;15.470;2022-10-16T14:59:14;3.10;;;0.60;;
13419;SDS011;6781;58.440;15.470;2022-10-16T15:01:44;1.30;;;0.52;;
13419;SDS011;6781;58.440;15.470;2022-10-16T15:04:13;1.13;;;0.40;;
13419;SDS011;6781;58.440;15.470;2022-10-16T15:06:40;0.40;;;0.40;;
13419;SDS011;6781;58.440;15.470;2022-10-16T15:09:07;1.95;;;0.32;;
13419;SDS011;6781;58.440;15.470;2022-10-16T15:11:34;3.20;;;0.50;;
13419;SDS011;6781;58.440;15.470;2022-10-16T15:14:02;2.53;;;0.70;;
13419;SDS011;6781;58.440;15.470;2022-10-16T15:16:30;0.75;;;0.43;;
13419;SDS011;6781;58.440;15.470;2022-10-16T15:18:57;2.35;;;0.63;;
13419;SDS011;6781;58.440;15.470;2022-10-16T15:21:26;0.77;;;0.60;;
13419;SDS011;6781;58.440;15.470;2022-10-16T15:23:54;1.88;;;0.57;;
13419;SDS011;6781;58.440;15.470;2022-10-16T15:26:22;2.30;;;0.52;;
13419;SDS011;6781;58.440;15.470;2022-10-16T15:28:50;2.05;;;0.70;;
13419;SDS011;6781;58.440;15.470;2022-10-16T15:31:17;2.63;;;0.75;;
13419;SDS011;6781;58.440;15.470;2022-10-16T15:33:44;1.73;;;0.70;;
13419;SDS011;6781;58.440;15.470;2022-10-16T15:36:18;1.27;;;0.68;;
13419;SDS011;6781;58.440;15.470;2022-10-16T15:38:53;1.45;;;0.70;;
13419;SDS011;6781;58.440;15.470;2022-10-16T15:41:21;3.72;;;0.73;;
13419;SDS011;6781;58.440;15.470;2022-10-16T15:43:49;1.23;;;0.63;;
13419;SDS011;6781;58.440;15.470;2022-10-16T15:46:17;1.98;;;0.52;;
13419;SDS011;6781;58.440;15.470;2022-10-16T15:48:46;3.33;;;0.65;;
13419;SDS011;6781;58.440;15.470;2022-10-16T15:51:13;3.08;;;0.75;;
13419;SDS011;6781;58.440;15.470;2022-10-16T15:53:42;1.63;;;0.50;;
13419;SDS011;6781;58.440;15.470;2022-10-16T15:56:11;1.60;;;0.75;;
13419;SDS011;6781;58.440;15.470;2022-10-16T15:58:39;3.72;;;0.85;;
13419;SDS011;6781;58.440;15.470;2022-10-16T16:01:06;2.13;;;0.85;;
13419;SDS011;6781;58.440;15.470;2022-10-16T16:03:35;2.10;;;0.75;;
13419;SDS011;6781;58.440;15.470;2022-10-16T16:06:05;3.50;;;0.60;;
13419;SDS011;6781;58.440;15.470;2022-10-16T16:08:33;3.42;;;0.60;;
13419;SDS011;6781;58.440;15.470;2022-10-16T16:11:03;3.97;;;0.80;;